sensor_id;sensor_type;location;lat;lon;timestamp;P1;durP1;ratioP1;P2;durP2;ratioP2
1887;SDS011;944;51.574;6.980;2022-07-29T00:02:00;8.33;;;1.40;;
1887;SDS011;944;51.574;6.980;2022-07-29T00:04:27;5.97;;;1.80;;
1887;SDS011;944;51.574;6.980;2022-07-29T00:06:57;1.87;;;1.40;;
1887;SDS011;944;51.574;6.980;2022-07-29T00:09:26;3.03;;;1.67;;
1887;SDS011;944;51.574;6.980;2022-07-29T00:11:53;8.93;;;2.20;;
1887;SDS011;944;51.574;6.980;2022-07-29T00:14:31;1.53;;;1.43;;
1887;SDS011;944;51.574;6.980;2022-07-29T00:17:03;5.07;;;1.70;;
1887;SDS011;944;51.574;6.980;2022-07-29T00:19:37;3.73;;;1.60;;
1887;SDS011;944;51.574;6.980;2022-07-29T00:22:05;3.90;;;1.30;;
1887;SDS011;944;51.574;6.980;2022-07-29T00:24:32;1.77;;;1.30;;
1887;SDS011;944;51.574;6.980;2022-07-29T00:26:59;2.40;;;1.70;;
1887;SDS011;944;51.574;6.980;2022-07-29T00:29:25;5.73;;;2.03;;
1887;SDS011;944;51.574;6.980;2022-07-29T00:31:54;4.83;;;1.63;;
1887;SDS011;944;51.574;6.980;2022-07-29T00:34:23;3.30;;;1.60;;
1887;SDS011;944;51.574;6.980;2022-07-29T00:37:07;1.90;;;1.40;;
1887;SDS011;944;51.574;6.980;2022-07-29T00:39:34;5.77;;;1.80;;
1887;SDS011;944;51.574;6.980;2022-07-29T00:42:01;7.40;;;2.17;;
1887;SDS011;944;51.574;6.980;2022-07-29T00:44:29;3.03;;;1.30;;
1887;SDS011;944;51.574;6.980;2022-07-29T00:46:56;4.70;;;1.83;;
1887;SDS011;944;51.574;6.980;2022-07-29T00:49:25;4.03;;;1.63;;
1887;SDS011;944;51.574;6.980;2022-07-29T00:51:52;3.13;;;1.60;;
1887;SDS011;944;51.574;6.980;2022-07-29T00:54:19;3.57;;;1.70;;
1887;SDS011;944;51.574;6.980;2022-07-29T00:56:46;3.33;;;1.67;;
1887;SDS011;944;51.574;6.980;2022-07-29T00:59:13;3.90;;;1.60;;
1887;SDS011;944;51.574;6.980;2022-07-29T01:01:40;8.73;;;2.30;;
1887;SDS011;944;51.574;6.980;2022-07-29T01:04:07;5.20;;;1.70;;
1887;SDS011;944;51.574;6.980;2022-07-29T01:06:35;3.57;;;1.43;;
1887;SDS011;944;51.574;6.980;2022-07-29T01:09:02;7.50;;;1.80;;
1887;SDS011;944;51.574;6.980;2022-07-29T01:11:29;4.10;;;1.17;;
1887;SDS011;944;51.574;6.980;2022-07-29T01:13:56;8.23;;;2.40;;
1887;SDS011;944;51.574;6.980;2022-07-29T01:16:25;3.43;;;1.50;;
1887;SDS011;944;51.574;6.980;2022-07-29T01:19:00;5.80;;;1.67;;
1887;SDS011;944;51.574;6.980;2022-07-29T01:21:51;9.40;;;1.57;;
1887;SDS011;944;51.574;6.980;2022-07-29T01:24:33;2.53;;;1.60;;
1887;SDS011;944;51.574;6.980;2022-07-29T01:27:26;6.57;;;1.53;;
1887;SDS011;944;51.574;6.980;2022-07-29T01:30:11;8.80;;;2.20;;
1887;SDS011;944;51.574;6.980;2022-07-29T01:32:38;7.63;;;1.53;;
1887;SDS011;944;51.574;6.980;2022-07-29T01:35:08;7.63;;;1.80;;
1887;SDS011;944;51.574;6.980;2022-07-29T01:37:43;3.03;;;1.50;;
1887;SDS011;944;51.574;6.980;2022-07-29T01:40:14;2.90;;;1.70;;
1887;SDS011;944;51.574;6.980;2022-07-29T01:42:51;4.83;;;1.43;;
1887;SDS011;944;51.574;6.980;2022-07-29T01:45:24;4.47;;;1.57;;
1887;SDS011;944;51.574;6.980;2022-07-29T01:47:58;8.53;;;1.90;;
1887;SDS011;944;51.574;6.980;2022-07-29T01:50:33;4.57;;;1.43;;
1887;SDS011;944;51.574;6.980;2022-07-29T01:53:04;1.67;;;1.57;;
1887;SDS011;944;51.574;6.980;2022-07-29T01:55:36;8.83;;;1.83;;
1887;SDS011;944;51.574;6.980;2022-07-29T01:58:07;3.50;;;1.40;;
1887;SDS011;944;51.574;6.980;2022-07-29T02:00:36;5.90;;;1.60;;
1887;SDS011;944;51.574;6.980;2022-07-29T02:03:05;4.50;;;1.90;;
1887;SDS011;944;51.574;6.980;2022-07-29T02:05:38;7.87;;;1.80;;
1887;SDS011;944;51.574;6.980;2022-07-29T02:08:07;2.20;;;1.30;;
1887;SDS011;944;51.574;6.980;2022-07-29T02:10:45;3.50;;;1.70;;
1887;SDS011;944;51.574;6.980;2022-07-29T02:13:14;3.63;;;1.50;;
1887;SDS011;944;51.574;6.980;2022-07-29T02:15:47;11.10;;;1.70;;
1887;SDS011;944;51.574;6.980;2022-07-29T02:18:17;4.10;;;1.50;;
1887;SDS011;944;51.574;6.980;2022-07-29T02:20:47;14.10;;;2.03;;
1887;SDS011;944;51.574;6.980;2022-07-29T02:23:17;3.60;;;1.60;;
1887;SDS011;944;51.574;6.980;2022-07-29T02:25:48;4.03;;;1.60;;
1887;SDS011;944;51.574;6.980;2022-07-29T02:28:19;4.73;;;1.70;;
1887;SDS011;944;51.574;6.980;2022-07-29T02:30:50;5.10;;;2.50;;
1887;SDS011;944;51.574;6.980;2022-07-29T02:33:19;5.33;;;2.10;;
1887;SDS011;944;51.574;6.980;2022-07-29T02:35:50;5.77;;;1.63;;
1887;SDS011;944;51.574;6.980;2022-07-29T02:38:18;4.87;;;1.40;;
1887;SDS011;944;51.574;6.980;2022-07-29T02:41:05;3.40;;;1.80;;
1887;SDS011;944;51.574;6.980;2022-07-29T02:43:37;7.07;;;2.03;;
1887;SDS011;944;51.574;6.980;2022-07-29T02:46:09;2.70;;;1.80;;
1887;SDS011;944;51.574;6.980;2022-07-29T02:48:44;5.13;;;1.77;;
1887;SDS011;944;51.574;6.980;2022-07-29T02:51:19;3.03;;;1.30;;
1887;SDS011;944;51.574;6.980;2022-07-29T02:53:53;5.00;;;2.00;;
1887;SDS011;944;51.574;6.980;2022-07-29T02:56:27;6.67;;;1.70;;
1887;SDS011;944;51.574;6.980;2022-07-29T02:59:00;2.90;;;1.50;;
1887;SDS011;944;51.574;6.980;2022-07-29T03:01:33;6.47;;;1.90;;
1887;SDS011;944;51.574;6.980;2022-07-29T03:04:05;3.53;;;1.40;;
1887;SDS011;944;51.574;6.980;2022-07-29T03:06:34;2.73;;;1.43;;
1887;SDS011;944;51.574;6.980;2022-07-29T03:09:02;5.90;;;1.67;;
1887;SDS011;944;51.574;6.980;2022-07-29T03:11:29;3.70;;;1.60;;
1887;SDS011;944;51.574;6.980;2022-07-29T03:13:57;2.60;;;1.70;;
1887;SDS011;944;51.574;6.980;2022-07-29T03:16:24;6.20;;;1.80;;
1887;SDS011;944;51.574;6.980;2022-07-29T03:19:00;7.07;;;1.90;;
1887;SDS011;944;51.574;6.980;2022-07-29T03:21:28;3.13;;;1.60;;
1887;SDS011;944;51.574;6.980;2022-07-29T03:23:55;8.73;;;1.90;;
1887;SDS011;944;51.574;6.980;2022-07-29T03:26:24;7.70;;;2.10;;
1887;SDS011;944;51.574;6.980;2022-07-29T03:28:51;8.10;;;2.23;;
1887;SDS011;944;51.574;6.980;2022-07-29T03:31:18;10.63;;;1.90;;
1887;SDS011;944;51.574;6.980;2022-07-29T03:33:45;4.73;;;1.77;;
1887;SDS011;944;51.574;6.980;2022-07-29T03:36:28;7.67;;;1.60;;
1887;SDS011;944;51.574;6.980;2022-07-29T03:38:55;2.83;;;1.70;;
1887;SDS011;944;51.574;6.980;2022-07-29T03:41:33;8.03;;;2.30;;
1887;SDS011;944;51.574;6.980;2022-07-29T03:44:02;3.27;;;1.80;;
1887;SDS011;944;51.574;6.980;2022-07-29T03:46:30;3.43;;;1.20;;
1887;SDS011;944;51.574;6.980;2022-07-29T03:48:59;7.20;;;1.60;;
1887;SDS011;944;51.574;6.980;2022-07-29T03:51:34;2.90;;;1.63;;
1887;SDS011;944;51.574;6.980;2022-07-29T03:54:07;3.73;;;1.60;;
1887;SDS011;944;51.574;6.980;2022-07-29T03:56:36;2.80;;;1.60;;
1887;SDS011;944;51.574;6.980;2022-07-29T03:59:08;4.07;;;1.70;;
1887;SDS011;944;51.574;6.980;2022-07-29T04:01:38;5.70;;;1.80;;
1887;SDS011;944;51.574;6.980;2022-07-29T04:04:12;6.17;;;2.10;;
1887;SDS011;944;51.574;6.980;2022-07-29T04:06:41;5.70;;;2.20;;
1887;SDS011;944;51.574;6.980;2022-07-29T04:09:12;4.17;;;1.70;;
1887;SDS011;944;51.574;6.980;2022-07-29T04:11:42;10.93;;;1.70;;
1887;SDS011;944;51.574;6.980;2022-07-29T04:14:11;6.00;;;1.80;;
1887;SDS011;944;51.574;6.980;2022-07-29T04:16:38;2.80;;;1.67;;
1887;SDS011;944;51.574;6.980;2022-07-29T04:19:08;4.60;;;2.00;;
1887;SDS011;944;51.574;6.980;2022-07-29T04:21:36;6.80;;;1.73;;
1887;SDS011;944;51.574;6.980;2022-07-29T04:24:06;2.63;;;1.77;;
1887;SDS011;944;51.574;6.980;2022-07-29T04:26:35;6.60;;;2.33;;
1887;SDS011;944;51.574;6.980;2022-07-29T04:29:02;2.40;;;1.53;;
1887;SDS011;944;51.574;6.980;2022-07-29T04:31:31;3.57;;;1.60;;
1887;SDS011;944;51.574;6.980;2022-07-29T04:34:00;9.40;;;1.73;;
1887;SDS011;944;51.574;6.980;2022-07-29T04:36:27;7.20;;;2.23;;
1887;SDS011;944;51.574;6.980;2022-07-29T04:41:39;8.20;;;1.73;;
1887;SDS011;944;51.574;6.980;2022-07-29T04:44:26;4.13;;;1.70;;
1887;SDS011;944;51.574;6.980;2022-07-29T04:46:59;4.30;;;2.00;;
1887;SDS011;944;51.574;6.980;2022-07-29T04:49:27;6.43;;;2.87;;
1887;SDS011;944;51.574;6.980;2022-07-29T04:51:54;4.60;;;1.97;;
1887;SDS011;944;51.574;6.980;2022-07-29T04:54:24;14.13;;;2.63;;
1887;SDS011;944;51.574;6.980;2022-07-29T04:56:54;13.63;;;3.00;;
1887;SDS011;944;51.574;6.980;2022-07-29T04:59:21;13.27;;;2.87;;
1887;SDS011;944;51.574;6.980;2022-07-29T05:03:55;6.37;;;2.80;;
1887;SDS011;944;51.574;6.980;2022-07-29T05:09:26;4.97;;;3.03;;
1887;SDS011;944;51.574;6.980;2022-07-29T05:11:53;5.03;;;2.53;;
1887;SDS011;944;51.574;6.980;2022-07-29T05:14:20;7.00;;;2.60;;
1887;SDS011;944;51.574;6.980;2022-07-29T05:16:50;7.60;;;2.77;;
1887;SDS011;944;51.574;6.980;2022-07-29T05:19:17;4.33;;;2.87;;
1887;SDS011;944;51.574;6.980;2022-07-29T05:21:44;4.10;;;2.37;;
1887;SDS011;944;51.574;6.980;2022-07-29T05:24:11;7.47;;;2.30;;
1887;SDS011;944;51.574;6.980;2022-07-29T05:26:40;6.37;;;2.27;;
1887;SDS011;944;51.574;6.980;2022-07-29T05:29:07;7.23;;;3.20;;
1887;SDS011;944;51.574;6.980;2022-07-29T05:31:34;5.63;;;2.37;;
1887;SDS011;944;51.574;6.980;2022-07-29T05:37:24;7.50;;;2.40;;
1887;SDS011;944;51.574;6.980;2022-07-29T05:39:53;7.40;;;2.10;;
1887;SDS011;944;51.574;6.980;2022-07-29T05:42:22;6.33;;;2.23;;
1887;SDS011;944;51.574;6.980;2022-07-29T05:44:49;3.37;;;2.47;;
1887;SDS011;944;51.574;6.980;2022-07-29T05:47:16;7.13;;;2.30;;
1887;SDS011;944;51.574;6.980;2022-07-29T05:49:43;5.50;;;2.40;;
1887;SDS011;944;51.574;6.980;2022-07-29T05:52:11;4.77;;;2.40;;
1887;SDS011;944;51.574;6.980;2022-07-29T05:54:38;3.93;;;2.10;;
1887;SDS011;944;51.574;6.980;2022-07-29T06:00:30;4.73;;;2.60;;
1887;SDS011;944;51.574;6.980;2022-07-29T06:06:47;5.53;;;2.33;;
1887;SDS011;944;51.574;6.980;2022-07-29T06:09:14;3.90;;;2.53;;
1887;SDS011;944;51.574;6.980;2022-07-29T06:11:43;4.20;;;2.20;;
1887;SDS011;944;51.574;6.980;2022-07-29T06:17:52;8.27;;;3.00;;
1887;SDS011;944;51.574;6.980;2022-07-29T06:20:19;4.60;;;2.90;;
1887;SDS011;944;51.574;6.980;2022-07-29T06:26:27;9.43;;;2.77;;
1887;SDS011;944;51.574;6.980;2022-07-29T06:28:54;9.90;;;2.77;;
1887;SDS011;944;51.574;6.980;2022-07-29T06:31:21;4.73;;;2.67;;
1887;SDS011;944;51.574;6.980;2022-07-29T06:33:49;4.60;;;2.83;;
1887;SDS011;944;51.574;6.980;2022-07-29T06:36:17;6.33;;;2.80;;
1887;SDS011;944;51.574;6.980;2022-07-29T06:38:44;6.07;;;2.43;;
1887;SDS011;944;51.574;6.980;2022-07-29T06:41:11;13.17;;;2.90;;
1887;SDS011;944;51.574;6.980;2022-07-29T06:43:41;3.30;;;2.77;;
1887;SDS011;944;51.574;6.980;2022-07-29T06:46:11;16.37;;;2.93;;
1887;SDS011;944;51.574;6.980;2022-07-29T06:48:40;7.77;;;3.00;;
1887;SDS011;944;51.574;6.980;2022-07-29T06:51:10;5.77;;;2.90;;
1887;SDS011;944;51.574;6.980;2022-07-29T06:53:38;7.50;;;3.67;;
1887;SDS011;944;51.574;6.980;2022-07-29T06:56:06;7.10;;;3.50;;
1887;SDS011;944;51.574;6.980;2022-07-29T06:58:34;9.13;;;3.10;;
1887;SDS011;944;51.574;6.980;2022-07-29T07:01:02;9.47;;;3.87;;
1887;SDS011;944;51.574;6.980;2022-07-29T07:03:31;9.43;;;3.40;;
1887;SDS011;944;51.574;6.980;2022-07-29T07:05:59;8.27;;;3.27;;
1887;SDS011;944;51.574;6.980;2022-07-29T07:08:27;5.10;;;3.70;;
1887;SDS011;944;51.574;6.980;2022-07-29T07:10:57;6.90;;;3.37;;
1887;SDS011;944;51.574;6.980;2022-07-29T07:13:27;7.87;;;3.53;;
1887;SDS011;944;51.574;6.980;2022-07-29T07:15:59;9.30;;;3.67;;
1887;SDS011;944;51.574;6.980;2022-07-29T07:18:27;11.77;;;3.80;;
1887;SDS011;944;51.574;6.980;2022-07-29T07:27:35;9.10;;;2.70;;
1887;SDS011;944;51.574;6.980;2022-07-29T07:30:06;9.90;;;3.70;;
1887;SDS011;944;51.574;6.980;2022-07-29T08:31:52;10.00;;;3.77;;
1887;SDS011;944;51.574;6.980;2022-07-29T09:03:54;7.30;;;4.60;;
1887;SDS011;944;51.574;6.980;2022-07-29T09:06:32;13.23;;;5.00;;
1887;SDS011;944;51.574;6.980;2022-07-29T09:09:42;9.03;;;4.30;;
1887;SDS011;944;51.574;6.980;2022-07-29T10:21:49;7.83;;;3.77;;
1887;SDS011;944;51.574;6.980;2022-07-29T10:24:47;9.07;;;3.30;;
1887;SDS011;944;51.574;6.980;2022-07-29T10:38:49;6.37;;;4.53;;
1887;SDS011;944;51.574;6.980;2022-07-29T14:10:28;22.53;;;4.90;;
1887;SDS011;944;51.574;6.980;2022-07-29T14:57:35;9.27;;;4.43;;
1887;SDS011;944;51.574;6.980;2022-07-29T15:00:03;8.90;;;4.63;;
1887;SDS011;944;51.574;6.980;2022-07-29T15:16:16;8.33;;;3.77;;
1887;SDS011;944;51.574;6.980;2022-07-29T15:18:44;5.00;;;4.03;;
1887;SDS011;944;51.574;6.980;2022-07-29T15:21:13;7.77;;;3.37;;
1887;SDS011;944;51.574;6.980;2022-07-29T15:34:38;15.17;;;3.97;;
1887;SDS011;944;51.574;6.980;2022-07-29T15:37:15;5.73;;;3.50;;
1887;SDS011;944;51.574;6.980;2022-07-29T15:43:34;12.13;;;4.30;;
1887;SDS011;944;51.574;6.980;2022-07-29T15:46:14;6.57;;;3.70;;
1887;SDS011;944;51.574;6.980;2022-07-29T15:49:09;13.57;;;3.63;;
1887;SDS011;944;51.574;6.980;2022-07-29T15:52:00;6.43;;;3.40;;
1887;SDS011;944;51.574;6.980;2022-07-29T15:54:54;6.20;;;3.53;;
